Time;durP1;ratioP1;P1;durP2;ratioP2;P2;SDS_P1;SDS_P2;PMS_P1;PMS_P2;Temp;Humidity;BMP_temperature;BMP_pressure;BME280_temperature;BME280_humidity;BME280_pressure;Samples;Min_cycle;Max_cycle;Signal;HPM_P1;HPM_P2
2022/09/21 00:01:25;;;;;;;1.75;1.05;;;21.60;45.40;;;;;;5049727;28;20463;-10
2022/09/21 00:03:56;;;;;;;1.20;1.00;;;21.60;45.40;;;;;;5050098;28;20049;-10
2022/09/21 00:06:23;;;;;;;1.83;1.10;;;21.60;45.40;;;;;;5049895;28;20431;-10
2022/09/21 00:08:50;;;;;;;2.28;1.23;;;21.50;45.40;;;;;;5049611;28;20140;-10
2022/09/21 00:11:25;;;;;;;1.20;1.00;;;21.50;45.50;;;;;;5049717;28;20053;-10
2022/09/21 00:13:57;;;;;;;1.63;0.95;;;21.50;45.50;;;;;;5049886;28;20053;-10
2022/09/21 00:16:23;;;;;;;1.00;0.95;;;21.50;45.50;;;;;;5049853;28;20102;-10
2022/09/21 00:18:49;;;;;;;1.75;1.20;;;21.50;45.50;;;;;;5050014;28;20048;-10
2022/09/21 00:21:16;;;;;;;1.90;1.13;;;21.50;45.50;;;;;;5049839;28;20045;-10
2022/09/21 00:23:42;;;;;;;1.08;0.90;;;21.50;45.50;;;;;;5049885;28;20048;-10
2022/09/21 00:26:11;;;;;;;1.20;1.10;;;21.50;45.50;;;;;;5049704;28;20129;-10
2022/09/21 00:28:39;;;;;;;2.22;1.10;;;21.50;45.50;;;;;;5048715;28;20516;-10
2022/09/21 00:31:07;;;;;;;2.17;0.95;;;21.50;45.50;;;;;;5051768;28;20059;-10
2022/09/21 00:33:33;;;;;;;1.98;1.00;;;21.50;45.50;;;;;;5052411;28;20056;-10
2022/09/21 00:36:07;;;;;;;1.45;1.20;;;21.50;45.50;;;;;;5052269;28;20490;-10
2022/09/21 00:38:34;;;;;;;1.42;1.10;;;21.50;45.50;;;;;;5052091;28;20486;-10
2022/09/21 00:40:59;;;;;;;1.42;1.02;;;21.50;45.50;;;;;;5052683;28;20090;-10
2022/09/21 00:43:25;;;;;;;1.33;0.85;;;21.50;45.60;;;;;;5052555;28;20049;-10
2022/09/21 00:46:00;;;;;;;1.95;1.40;;;21.50;45.60;;;;;;5052864;28;20077;-10
2022/09/21 00:48:26;;;;;;;2.17;1.25;;;21.50;45.60;;;;;;5052017;28;20144;-10
2022/09/21 00:50:57;;;;;;;1.23;1.00;;;21.50;45.60;;;;;;5052127;28;20064;-10
2022/09/21 00:53:24;;;;;;;1.48;1.08;;;21.50;45.60;;;;;;5052114;28;20053;-10
2022/09/21 00:55:54;;;;;;;1.45;1.10;;;21.50;45.60;;;;;;5052073;28;20078;-10
2022/09/21 00:58:26;;;;;;;1.55;1.10;;;21.50;45.60;;;;;;5052107;28;20049;-10
2022/09/21 01:00:54;;;;;;;1.88;1.30;;;21.50;45.60;;;;;;5052388;28;20090;-10
2022/09/21 01:03:21;;;;;;;1.83;0.93;;;21.50;45.60;;;;;;5033994;28;20053;-10
2022/09/21 01:05:48;;;;;;;1.10;1.00;;;21.50;45.70;;;;;;5051942;28;20101;-10
2022/09/21 01:08:16;;;;;;;2.53;1.17;;;21.50;45.70;;;;;;5051833;28;20053;-10
2022/09/21 01:11:26;;;;;;;1.85;1.15;;;21.40;45.60;;;;;;5052449;28;20052;-10
2022/09/21 01:14:03;;;;;;;1.00;0.90;;;21.40;45.70;;;;;;5051946;28;20045;-10
2022/09/21 01:16:44;;;;;;;1.13;0.95;;;21.40;45.70;;;;;;5051506;28;20049;-10
2022/09/21 01:19:39;;;;;;;1.73;1.25;;;21.40;45.70;;;;;;5051642;28;20075;-10
2022/09/21 01:22:32;;;;;;;1.35;1.10;;;21.40;45.80;;;;;;5052309;28;20475;-10
2022/09/21 01:25:28;;;;;;;1.15;0.90;;;21.40;45.80;;;;;;5051787;28;20494;-10
2022/09/21 01:28:06;;;;;;;1.45;1.10;;;21.40;45.80;;;;;;5051053;28;20085;-10
2022/09/21 01:30:35;;;;;;;1.60;1.00;;;21.40;45.80;;;;;;5051478;28;20084;-10
2022/09/21 01:33:36;;;;;;;1.00;0.90;;;21.40;45.80;;;;;;5051384;28;20082;-10
2022/09/21 01:36:10;;;;;;;1.33;0.95;;;21.40;45.80;;;;;;5062297;28;20072;-10
2022/09/21 01:38:44;;;;;;;1.20;1.10;;;21.40;45.80;;;;;;5051713;28;20434;-10
2022/09/21 01:41:13;;;;;;;1.13;1.00;;;21.40;45.80;;;;;;5051421;28;20064;-10
2022/09/21 01:43:54;;;;;;;1.20;1.10;;;21.40;45.80;;;;;;5051452;28;20072;-10
2022/09/21 01:46:21;;;;;;;1.17;1.02;;;21.40;45.80;;;;;;5051832;28;20052;-10
2022/09/21 01:48:51;;;;;;;1.45;1.08;;;21.40;45.80;;;;;;5051206;28;20053;-10
2022/09/21 01:51:20;;;;;;;1.10;1.00;;;21.40;45.80;;;;;;5051494;28;20053;-10
2022/09/21 01:53:56;;;;;;;1.40;0.90;;;21.30;45.80;;;;;;5051586;28;20414;-10
2022/09/21 01:56:31;;;;;;;3.55;1.40;;;21.30;45.80;;;;;;5051875;28;20482;-10
2022/09/21 01:59:08;;;;;;;1.20;1.10;;;21.30;45.70;;;;;;5051390;28;20069;-10
2022/09/21 02:01:42;;;;;;;1.42;1.20;;;21.40;45.80;;;;;;5051357;28;20053;-10
2022/09/21 02:04:11;;;;;;;1.45;1.08;;;21.40;45.80;;;;;;5051056;28;20520;-10
2022/09/21 02:06:40;;;;;;;1.10;0.88;;;21.40;45.80;;;;;;5051186;28;20097;-10
2022/09/21 02:09:08;;;;;;;2.88;1.25;;;21.30;45.80;;;;;;5051267;28;20049;-10
2022/09/21 02:11:42;;;;;;;1.13;1.00;;;21.40;45.80;;;;;;5051476;28;20060;-10
2022/09/21 02:14:15;;;;;;;1.63;1.10;;;21.40;45.80;;;;;;5051633;28;20051;-10
2022/09/21 02:17:10;;;;;;;1.88;1.25;;;21.40;45.80;;;;;;5051036;28;20057;-10
2022/09/21 02:19:44;;;;;;;1.30;1.17;;;21.30;45.80;;;;;;5051686;28;20057;-10
2022/09/21 02:22:19;;;;;;;1.52;1.00;;;21.40;45.80;;;;;;5050333;28;20435;-10
2022/09/21 02:25:08;;;;;;;1.73;1.13;;;21.30;45.80;;;;;;5051171;28;20248;-10
2022/09/21 02:28:00;;;;;;;1.42;1.10;;;21.30;45.80;;;;;;5032901;28;20057;-10
2022/09/21 02:30:27;;;;;;;1.67;1.13;;;21.40;45.80;;;;;;5050900;28;20057;-10
2022/09/21 02:33:05;;;;;;;1.67;1.15;;;21.40;45.80;;;;;;5051202;28;20401;-10
2022/09/21 02:35:49;;;;;;;3.08;1.17;;;21.30;45.80;;;;;;5050824;28;20091;-10
2022/09/21 02:38:36;;;;;;;1.45;1.02;;;21.30;45.80;;;;;;5050797;28;20107;-10
2022/09/21 02:41:18;;;;;;;1.38;1.10;;;21.30;45.80;;;;;;5051108;28;20053;-10
2022/09/21 02:43:57;;;;;;;1.30;0.90;;;21.30;45.80;;;;;;5051164;28;20060;-10
2022/09/21 02:46:42;;;;;;;0.90;0.90;;;21.30;45.70;;;;;;5050966;28;20045;-10
2022/09/21 02:49:22;;;;;;;1.10;1.00;;;21.40;45.70;;;;;;5050603;28;20056;-10
2022/09/21 02:51:51;;;;;;;1.67;1.00;;;21.40;45.70;;;;;;5050650;28;20048;-10
2022/09/21 02:54:21;;;;;;;1.30;1.05;;;21.40;45.70;;;;;;5049983;28;20057;-10
2022/09/21 02:56:49;;;;;;;0.88;0.77;;;21.40;45.60;;;;;;5050260;28;20093;-10
2022/09/21 02:59:16;;;;;;;1.73;1.05;;;21.40;45.50;;;;;;5050659;28;20047;-10
2022/09/21 03:01:42;;;;;;;1.35;0.90;;;21.50;45.50;;;;;;5050563;28;20061;-10
2022/09/21 03:04:08;;;;;;;1.52;1.00;;;21.50;45.50;;;;;;5051134;28;20053;-10
2022/09/21 03:06:34;;;;;;;1.80;0.90;;;21.50;45.30;;;;;;5050582;28;20049;-10
2022/09/21 03:09:00;;;;;;;1.67;1.20;;;21.50;45.30;;;;;;5050776;28;20135;-10
2022/09/21 03:11:26;;;;;;;2.00;1.00;;;21.60;45.20;;;;;;5050896;28;20044;-10
2022/09/21 03:13:52;;;;;;;1.23;1.10;;;21.60;45.10;;;;;;5050360;28;20052;-10
2022/09/21 03:16:17;;;;;;;1.77;1.15;;;21.60;45.10;;;;;;5050975;28;20135;-10
2022/09/21 03:18:43;;;;;;;1.80;1.00;;;21.70;45.00;;;;;;5050702;28;20135;-10
2022/09/21 03:21:11;;;;;;;1.30;1.10;;;21.70;44.90;;;;;;5050287;28;20061;-10
2022/09/21 03:23:37;;;;;;;1.25;1.00;;;21.70;44.80;;;;;;5050217;28;20057;-10
2022/09/21 03:26:03;;;;;;;2.20;1.08;;;21.80;44.80;;;;;;5050248;28;20055;-10
2022/09/21 03:28:28;;;;;;;1.70;0.90;;;21.80;44.80;;;;;;5050429;28;20553;-10
2022/09/21 03:30:54;;;;;;;1.33;0.90;;;21.70;44.70;;;;;;5050196;28;20124;-10
2022/09/21 03:33:21;;;;;;;1.10;0.98;;;21.80;44.70;;;;;;5050198;28;20513;-10
2022/09/21 03:35:48;;;;;;;1.13;1.00;;;21.80;44.70;;;;;;5050095;28;20057;-10
2022/09/21 03:38:16;;;;;;;1.08;1.02;;;21.80;44.80;;;;;;5050184;28;20410;-10
2022/09/21 03:40:48;;;;;;;1.90;1.13;;;21.80;44.80;;;;;;5049833;28;20068;-10
2022/09/21 03:43:16;;;;;;;1.23;1.00;;;21.70;44.70;;;;;;5050107;28;20406;-10
2022/09/21 03:45:42;;;;;;;1.13;1.00;;;21.80;44.80;;;;;;5050482;28;20177;-10
2022/09/21 03:48:10;;;;;;;1.83;1.20;;;21.80;44.80;;;;;;5050125;28;20120;-10
2022/09/21 03:50:36;;;;;;;0.98;0.82;;;21.70;44.80;;;;;;5049679;28;20418;-10
2022/09/21 03:53:02;;;;;;;1.58;1.15;;;21.70;44.80;;;;;;5031212;28;20513;-10
2022/09/21 03:55:28;;;;;;;2.42;1.27;;;21.70;44.90;;;;;;5049645;28;20125;-10
2022/09/21 03:57:54;;;;;;;0.90;0.90;;;21.70;44.90;;;;;;5049921;28;20490;-10
2022/09/21 04:00:20;;;;;;;1.63;0.90;;;21.70;45.00;;;;;;5049795;28;20056;-10
2022/09/21 04:02:46;;;;;;;0.93;0.93;;;21.60;45.00;;;;;;5049802;28;20052;-10
2022/09/21 04:05:14;;;;;;;2.10;1.30;;;21.60;45.00;;;;;;5048436;28;20136;-10
2022/09/21 04:07:41;;;;;;;1.63;1.10;;;21.60;45.10;;;;;;5049371;28;20057;-10
2022/09/21 04:10:11;;;;;;;1.35;1.10;;;21.60;45.20;;;;;;5049651;28;20131;-10
2022/09/21 04:12:38;;;;;;;2.28;1.00;;;21.60;45.20;;;;;;5050212;28;20049;-10
2022/09/21 04:15:06;;;;;;;0.98;0.95;;;21.60;45.70;;;;;;5049915;28;20057;-10
2022/09/21 04:17:33;;;;;;;1.35;1.25;;;21.60;45.10;;;;;;5049586;28;20044;-10
2022/09/21 04:19:59;;;;;;;1.95;1.10;;;21.60;45.10;;;;;;5049819;28;20135;-10
2022/09/21 04:22:25;;;;;;;1.27;1.08;;;21.50;45.00;;;;;;5049771;28;20091;-10
2022/09/21 04:24:51;;;;;;;1.73;1.27;;;21.60;45.10;;;;;;5047784;28;20443;-10
2022/09/21 04:27:17;;;;;;;1.10;1.00;;;21.60;45.10;;;;;;5049893;28;20391;-10
2022/09/21 04:29:43;;;;;;;0.90;0.90;;;21.60;45.10;;;;;;5049413;28;20048;-10
2022/09/21 04:32:09;;;;;;;1.17;0.85;;;21.60;45.10;;;;;;5049368;28;20053;-10
2022/09/21 04:34:38;;;;;;;2.15;1.30;;;21.60;45.10;;;;;;5049332;28;20406;-10
2022/09/21 04:37:04;;;;;;;1.10;1.00;;;21.60;45.10;;;;;;5049242;28;20053;-10
2022/09/21 04:39:29;;;;;;;1.60;1.00;;;21.60;45.10;;;;;;5049200;28;20478;-10
2022/09/21 04:41:55;;;;;;;1.30;1.00;;;21.60;45.10;;;;;;5049221;28;20067;-10
2022/09/21 04:44:21;;;;;;;1.17;1.00;;;21.50;45.20;;;;;;5049735;28;20045;-10
2022/09/21 04:46:46;;;;;;;1.63;1.00;;;21.50;45.20;;;;;;5049470;28;20180;-10
2022/09/21 04:49:12;;;;;;;1.25;1.00;;;21.50;45.20;;;;;;5049561;28;20102;-10
2022/09/21 04:51:38;;;;;;;2.55;1.33;;;21.50;45.20;;;;;;5049111;28;20060;-10
2022/09/21 04:54:03;;;;;;;1.00;0.90;;;21.50;45.20;;;;;;5049297;28;20405;-10
2022/09/21 04:56:29;;;;;;;1.20;0.90;;;21.50;45.20;;;;;;5049013;28;20049;-10
2022/09/21 04:58:55;;;;;;;1.30;0.82;;;21.50;45.20;;;;;;5048565;28;20049;-10
2022/09/21 05:01:21;;;;;;;1.50;0.80;;;21.50;45.30;;;;;;5048786;28;20069;-10
2022/09/21 05:03:47;;;;;;;1.73;1.10;;;21.50;45.30;;;;;;5049395;28;20091;-10
2022/09/21 05:06:13;;;;;;;1.33;0.90;;;21.50;45.30;;;;;;5049193;28;20049;-10
2022/09/21 05:11:24;;;;;;;1.98;1.08;;;21.50;45.20;;;;;;5048752;28;20041;-10
2022/09/21 05:13:50;;;;;;;2.50;1.30;;;21.50;45.20;;;;;;5048651;28;20049;-10
2022/09/21 05:16:17;;;;;;;1.27;1.10;;;21.50;45.20;;;;;;5049903;28;20494;-10
2022/09/21 05:18:43;;;;;;;1.10;1.00;;;21.50;45.20;;;;;;5051968;28;20511;-10
2022/09/21 05:21:11;;;;;;;1.40;1.00;;;21.50;45.10;;;;;;5051784;28;20525;-10
2022/09/21 05:23:37;;;;;;;1.63;1.10;;;21.50;45.00;;;;;;5051784;28;20064;-10
2022/09/21 05:26:03;;;;;;;1.42;1.10;;;21.60;45.10;;;;;;5051645;28;20402;-10
2022/09/21 05:28:29;;;;;;;0.88;0.80;;;21.60;45.00;;;;;;5051557;28;20509;-10
2022/09/21 05:31:10;;;;;;;0.98;0.85;;;21.70;44.90;;;;;;5051706;28;20511;-10
2022/09/21 05:33:41;;;;;;;1.52;1.10;;;21.70;44.80;;;;;;5051671;28;20160;-10
2022/09/21 05:36:26;;;;;;;0.90;0.70;;;21.80;44.80;;;;;;5051971;28;20049;-10
2022/09/21 05:38:52;;;;;;;1.02;0.93;;;21.90;44.60;;;;;;5051993;28;20048;-10
2022/09/21 05:41:18;;;;;;;1.23;1.10;;;21.90;44.40;;;;;;5051450;28;20091;-10
2022/09/21 05:43:44;;;;;;;1.10;1.00;;;22.00;44.30;;;;;;5051227;28;20057;-10
2022/09/21 05:46:40;;;;;;;0.95;0.88;;;22.20;44.10;;;;;;5051587;28;20045;-10
2022/09/21 05:49:19;;;;;;;2.92;1.10;;;22.30;43.80;;;;;;5059467;28;20045;-10
2022/09/21 05:52:07;;;;;;;1.50;1.00;;;22.40;43.70;;;;;;5051286;28;20133;-10
2022/09/21 05:55:06;;;;;;;2.20;0.90;;;22.50;43.50;;;;;;5033570;28;20095;-10
2022/09/21 05:57:49;;;;;;;2.38;1.15;;;22.60;43.20;;;;;;5051192;28;20071;-10
2022/09/21 06:00:21;;;;;;;1.77;0.80;;;22.80;43.00;;;;;;5051477;28;20049;-10
2022/09/21 06:02:56;;;;;;;1.55;1.20;;;22.70;42.90;;;;;;5051026;28;20322;-10
2022/09/21 06:05:22;;;;;;;1.20;1.10;;;22.70;43.00;;;;;;5051059;28;20504;-10
2022/09/21 06:07:48;;;;;;;1.63;1.20;;;22.70;43.00;;;;;;5050813;28;20057;-10
2022/09/21 06:10:14;;;;;;;1.73;0.88;;;22.70;43.00;;;;;;5050689;28;20163;-10
2022/09/21 06:12:40;;;;;;;1.98;1.40;;;22.70;42.90;;;;;;5050484;28;20057;-10
2022/09/21 06:15:13;;;;;;;1.00;0.90;;;22.70;43.00;;;;;;5050624;28;20059;-10
2022/09/21 06:17:39;;;;;;;1.75;1.00;;;22.80;43.00;;;;;;5048079;28;20402;-10
2022/09/21 06:20:06;;;;;;;1.27;1.10;;;22.80;42.90;;;;;;5050518;28;20067;-10
2022/09/21 06:22:32;;;;;;;1.33;0.80;;;22.80;42.90;;;;;;5032439;28;20445;-10
2022/09/21 06:24:58;;;;;;;1.40;1.00;;;22.80;42.80;;;;;;5050533;28;20114;-10
2022/09/21 06:27:23;;;;;;;1.42;1.20;;;23.00;42.70;;;;;;5049562;28;20053;-10
2022/09/21 06:29:49;;;;;;;1.30;1.20;;;23.00;42.60;;;;;;5050600;28;20059;-11
2022/09/21 06:32:15;;;;;;;2.00;1.10;;;23.10;42.50;;;;;;5050487;28;20403;-11
2022/09/21 06:34:41;;;;;;;1.13;0.90;;;23.10;42.30;;;;;;5050411;28;20052;-11
2022/09/21 06:37:10;;;;;;;1.77;1.05;;;23.10;42.30;;;;;;5050335;28;20053;-11
2022/09/21 06:39:36;;;;;;;1.70;1.13;;;23.20;42.80;;;;;;5050409;28;20410;-11
2022/09/21 06:42:03;;;;;;;0.90;0.90;;;23.20;42.20;;;;;;5050674;28;20053;-10
2022/09/21 06:44:29;;;;;;;1.08;0.98;;;23.30;42.20;;;;;;5050245;28;20061;-11
2022/09/21 06:46:55;;;;;;;1.75;1.20;;;23.20;42.10;;;;;;5050093;28;20056;-11
2022/09/21 06:49:21;;;;;;;1.75;0.95;;;23.30;42.10;;;;;;5050528;28;20133;-11
2022/09/21 06:51:47;;;;;;;1.40;1.00;;;23.30;42.00;;;;;;5050827;28;20483;-12
2022/09/21 06:54:12;;;;;;;1.50;0.90;;;23.30;42.00;;;;;;5050325;28;20053;-11
2022/09/21 06:56:38;;;;;;;1.65;1.05;;;23.40;42.00;;;;;;5050169;28;20448;-11
2022/09/21 06:59:04;;;;;;;1.67;1.10;;;23.40;41.90;;;;;;5050473;28;20474;-11
2022/09/21 07:01:29;;;;;;;1.30;0.98;;;23.40;41.80;;;;;;5050489;28;20087;-12
2022/09/21 07:03:55;;;;;;;1.52;0.93;;;23.50;41.80;;;;;;5050134;28;20049;-11
2022/09/21 07:06:21;;;;;;;1.42;1.10;;;23.50;41.80;;;;;;5050050;28;20110;-12
2022/09/21 07:08:47;;;;;;;2.08;1.30;;;23.50;41.70;;;;;;5050065;28;20063;-11
2022/09/21 07:11:13;;;;;;;1.73;1.25;;;23.50;41.60;;;;;;5047713;28;20065;-11
2022/09/21 07:13:40;;;;;;;1.10;1.00;;;23.60;41.60;;;;;;5050043;28;20056;-11
2022/09/21 07:16:08;;;;;;;1.00;0.90;;;23.60;41.50;;;;;;5049776;28;20056;-12
2022/09/21 07:18:34;;;;;;;1.30;1.13;;;23.70;41.60;;;;;;5050198;28;20132;-9
2022/09/21 07:21:09;;;;;;;2.75;1.45;;;23.70;41.40;;;;;;5049907;28;20494;-9
2022/09/21 07:23:35;;;;;;;1.25;1.00;;;23.70;41.40;;;;;;5049979;28;20057;-11
2022/09/21 07:26:06;;;;;;;1.48;1.00;;;23.80;41.40;;;;;;5049943;28;20057;-10
2022/09/21 07:28:32;;;;;;;1.90;1.00;;;23.80;41.30;;;;;;5050056;28;20043;-10
2022/09/21 07:31:04;;;;;;;1.55;1.10;;;23.80;41.30;;;;;;5049735;28;20045;-10
2022/09/21 07:33:32;;;;;;;2.05;1.20;;;23.80;41.30;;;;;;5049205;28;20082;-10
2022/09/21 07:35:59;;;;;;;1.40;1.17;;;23.80;41.30;;;;;;5049858;28;20144;-10
2022/09/21 07:38:25;;;;;;;2.70;1.10;;;23.80;41.30;;;;;;5048992;28;20060;-11
2022/09/21 07:40:51;;;;;;;2.15;1.33;;;23.80;41.30;;;;;;5049718;28;20064;-10
2022/09/21 07:43:17;;;;;;;1.58;1.10;;;23.70;41.40;;;;;;5049819;28;20056;-11
2022/09/21 07:45:42;;;;;;;1.42;1.02;;;23.70;41.50;;;;;;5049692;28;20097;-11
2022/09/21 07:48:08;;;;;;;1.30;1.15;;;23.70;41.50;;;;;;5049255;28;20418;-11
2022/09/21 07:50:34;;;;;;;1.05;1.00;;;23.70;41.60;;;;;;5045843;28;20096;-12
2022/09/21 07:53:01;;;;;;;1.50;1.15;;;23.60;41.60;;;;;;5047249;28;20084;-17
2022/09/21 07:55:27;;;;;;;1.80;1.00;;;23.60;41.60;;;;;;5047672;28;20053;-12
2022/09/21 08:00:37;;;;;;;1.67;1.10;;;23.60;41.70;;;;;;5048127;28;20524;-11
2022/09/21 08:03:03;;;;;;;1.60;1.10;;;23.50;41.70;;;;;;5048558;28;20128;-11
2022/09/21 08:05:30;;;;;;;1.60;1.10;;;23.50;41.80;;;;;;5049153;28;20044;-11
2022/09/21 08:07:56;;;;;;;1.92;1.00;;;23.50;41.90;;;;;;5048812;28;20076;-11
2022/09/21 08:10:28;;;;;;;2.00;1.48;;;23.40;41.90;;;;;;5049543;28;20057;-11
2022/09/21 08:12:55;;;;;;;2.40;1.58;;;23.40;42.10;;;;;;5049260;28;20059;-11
2022/09/21 08:15:21;;;;;;;1.20;1.10;;;23.40;42.10;;;;;;5048946;28;20391;-11
2022/09/21 08:17:47;;;;;;;2.53;1.42;;;23.30;42.10;;;;;;5049124;28;20060;-11
2022/09/21 08:20:13;;;;;;;1.20;1.10;;;23.30;42.20;;;;;;5049128;28;20610;-11
2022/09/21 08:22:39;;;;;;;4.07;1.38;;;23.30;42.30;;;;;;5049134;28;20128;-11
2022/09/21 08:25:05;;;;;;;1.80;1.20;;;23.20;42.40;;;;;;5047635;28;20414;-11
2022/09/21 08:27:31;;;;;;;1.20;1.10;;;23.20;42.50;;;;;;5049129;28;20053;-11
2022/09/21 08:29:56;;;;;;;2.40;1.13;;;23.10;42.50;;;;;;5049259;28;20057;-11
2022/09/21 08:32:22;;;;;;;1.52;1.10;;;23.00;42.70;;;;;;5049568;28;20106;-10
2022/09/21 08:34:48;;;;;;;2.40;1.38;;;23.00;42.80;;;;;;5049044;28;20089;-10
2022/09/21 08:37:14;;;;;;;1.92;1.20;;;22.90;42.90;;;;;;5048988;28;20045;-10
2022/09/21 08:39:40;;;;;;;1.40;1.30;;;22.90;43.10;;;;;;5048482;28;20044;-10
2022/09/21 08:42:12;;;;;;;1.52;1.27;;;22.80;43.20;;;;;;5048615;28;20505;-11
2022/09/21 08:45:00;;;;;;;1.92;1.10;;;22.70;43.30;;;;;;5049486;28;20061;-10
2022/09/21 08:47:39;;;;;;;2.63;1.48;;;22.70;43.40;;;;;;5049194;28;20057;-11
2022/09/21 08:50:21;;;;;;;1.20;1.10;;;22.70;43.40;;;;;;5048484;28;20049;-10
2022/09/21 08:52:48;;;;;;;1.92;1.17;;;22.60;43.50;;;;;;5051934;28;20080;-10
2022/09/21 08:55:19;;;;;;;1.23;0.98;;;22.60;43.70;;;;;;5052217;28;20053;-10
2022/09/21 08:57:45;;;;;;;1.40;1.23;;;22.50;43.70;;;;;;5051517;28;20490;-10
2022/09/21 09:00:15;;;;;;;1.83;1.45;;;22.50;43.80;;;;;;5051361;28;20057;-10
2022/09/21 09:03:08;;;;;;;1.77;1.50;;;22.50;43.90;;;;;;5033595;28;20447;-10
2022/09/21 09:05:44;;;;;;;2.38;1.60;;;22.40;44.00;;;;;;5049002;28;20560;-10
2022/09/21 09:08:25;;;;;;;1.17;1.08;;;22.40;44.00;;;;;;5051146;28;20097;-10
2022/09/21 09:11:12;;;;;;;1.27;1.17;;;22.40;44.00;;;;;;5051930;28;20052;-11
2022/09/21 09:13:56;;;;;;;1.85;1.30;;;22.40;44.60;;;;;;5051220;28;20057;-10
2022/09/21 09:16:36;;;;;;;1.80;1.30;;;22.40;44.10;;;;;;5051150;28;20567;-10
2022/09/21 09:19:05;;;;;;;1.98;1.33;;;22.40;44.10;;;;;;5033157;28;20049;-10
2022/09/21 09:21:42;;;;;;;3.00;1.23;;;22.40;44.10;;;;;;5051205;28;20072;-10
2022/09/21 09:24:32;;;;;;;3.25;1.40;;;22.40;44.10;;;;;;5050897;28;20041;-11
2022/09/21 09:27:20;;;;;;;1.10;1.00;;;22.40;44.20;;;;;;5051308;28;20394;-10
2022/09/21 09:30:01;;;;;;;1.70;1.42;;;22.30;44.20;;;;;;5050813;28;20139;-10
2022/09/21 09:32:38;;;;;;;1.30;1.20;;;22.40;44.30;;;;;;5051061;28;20078;-11
2022/09/21 09:35:19;;;;;;;1.80;1.40;;;22.40;44.20;;;;;;5051460;28;20045;-10
2022/09/21 09:37:47;;;;;;;2.45;1.40;;;22.40;44.20;;;;;;5051472;28;20444;-11
2022/09/21 09:40:13;;;;;;;2.33;1.50;;;22.40;44.20;;;;;;5051883;28;20072;-10
2022/09/21 09:43:01;;;;;;;2.30;1.48;;;22.30;44.30;;;;;;5051296;28;20049;-10
2022/09/21 09:46:17;;;;;;;1.20;1.10;;;22.30;44.30;;;;;;5049358;28;20172;-10
2022/09/21 09:49:07;;;;;;;3.78;1.63;;;22.30;44.30;;;;;;5072032;28;20055;-10
2022/09/21 09:51:35;;;;;;;2.42;1.70;;;22.30;44.30;;;;;;5051272;28;20437;-10
2022/09/21 09:54:02;;;;;;;2.15;1.60;;;22.30;44.20;;;;;;5051175;28;20410;-10
2022/09/21 09:56:31;;;;;;;2.88;1.50;;;22.40;44.30;;;;;;5051035;28;20056;-10
2022/09/21 09:59:05;;;;;;;3.22;1.60;;;22.30;44.20;;;;;;5051155;28;20128;-10
2022/09/21 10:01:45;;;;;;;2.80;1.50;;;22.30;44.30;;;;;;5050844;28;20524;-10
2022/09/21 10:04:16;;;;;;;4.47;1.85;;;22.40;44.30;;;;;;5050712;28;20059;-10
2022/09/21 10:06:43;;;;;;;2.20;1.48;;;22.40;44.20;;;;;;5050898;28;20053;-10
2022/09/21 10:09:44;;;;;;;2.50;1.77;;;22.30;44.20;;;;;;5050887;28;20533;-10
2022/09/21 10:12:29;;;;;;;2.17;1.58;;;22.40;44.20;;;;;;5051418;28;20455;-10
2022/09/21 10:14:59;;;;;;;2.40;1.60;;;22.40;44.20;;;;;;5050534;28;20055;-11
2022/09/21 10:17:26;;;;;;;2.75;2.08;;;22.40;44.20;;;;;;5050766;28;20079;-10
2022/09/21 10:20:03;;;;;;;3.25;1.83;;;22.50;44.20;;;;;;5050303;28;20049;-11
2022/09/21 10:22:29;;;;;;;4.20;1.67;;;22.40;44.10;;;;;;5050400;28;20109;-11
2022/09/21 10:24:58;;;;;;;5.13;1.60;;;22.40;44.10;;;;;;5050544;28;20056;-11
2022/09/21 10:27:36;;;;;;;2.45;1.50;;;22.40;44.20;;;;;;5050593;28;20071;-12
2022/09/21 10:30:02;;;;;;;2.53;1.80;;;22.40;44.10;;;;;;5050223;28;20045;-11
2022/09/21 10:32:28;;;;;;;4.20;1.80;;;22.40;44.20;;;;;;5050230;28;20052;-12
2022/09/21 10:35:06;;;;;;;3.20;1.90;;;22.40;44.10;;;;;;5050485;28;20057;-11
2022/09/21 10:37:39;;;;;;;2.53;1.90;;;22.40;44.10;;;;;;5050377;28;20053;-9
2022/09/21 10:40:20;;;;;;;5.75;1.70;;;22.40;44.20;;;;;;5050197;28;20049;-11
2022/09/21 10:42:52;;;;;;;2.80;1.90;;;22.40;44.30;;;;;;5050224;28;20123;-11
2022/09/21 10:45:36;;;;;;;3.33;1.77;;;22.30;44.30;;;;;;5050669;28;20113;-12
2022/09/21 10:48:04;;;;;;;3.05;1.80;;;22.40;44.30;;;;;;5049892;28;20409;-12
2022/09/21 10:50:47;;;;;;;3.90;1.75;;;22.40;44.20;;;;;;5050349;28;20052;-11
2022/09/21 10:53:27;;;;;;;4.10;2.00;;;22.40;44.20;;;;;;5050537;28;20086;-11
2022/09/21 10:56:03;;;;;;;1.98;1.60;;;22.40;44.10;;;;;;5050160;28;20409;-11
2022/09/21 10:58:29;;;;;;;2.70;1.73;;;22.40;44.10;;;;;;5118982;27;20144;-11
2022/09/21 11:00:57;;;;;;;2.15;1.45;;;22.40;44.10;;;;;;5050133;28;20049;-11
2022/09/21 11:03:51;;;;;;;5.22;1.90;;;22.40;44.10;;;;;;5050157;28;20080;-11
2022/09/21 11:06:34;;;;;;;2.42;1.92;;;22.40;44.20;;;;;;5049647;28;20057;-11
2022/09/21 11:09:05;;;;;;;3.08;1.80;;;22.40;44.20;;;;;;5049787;28;20048;-11
2022/09/21 11:11:38;;;;;;;;;;;22.40;44.10;;;;;;5118435;27;20053;-11
2022/09/21 11:14:20;;;;;;;2.40;1.67;;;22.40;44.20;;;;;;5049858;28;20035;-11
2022/09/21 11:17:03;;;;;;;2.35;1.50;;;22.40;44.10;;;;;;5050275;28;20060;-11
2022/09/21 11:19:48;;;;;;;2.45;1.90;;;22.40;44.10;;;;;;5049642;28;20044;-11
2022/09/21 11:22:21;;;;;;;2.00;1.70;;;22.40;44.10;;;;;;5050303;28;20045;-11
2022/09/21 11:25:14;;;;;;;3.35;2.00;;;22.50;44.10;;;;;;5049956;28;20072;-11
2022/09/21 11:27:44;;;;;;;2.45;1.90;;;22.50;44.10;;;;;;5049884;28;20057;-9
2022/09/21 11:30:12;;;;;;;3.78;1.70;;;22.40;44.10;;;;;;5118614;27;20053;-11
2022/09/21 11:33:09;;;;;;;2.80;1.58;;;22.40;44.20;;;;;;5050212;28;20088;-11
2022/09/21 11:35:39;;;;;;;2.10;1.88;;;22.40;44.30;;;;;;5049730;28;20049;-12
2022/09/21 11:38:29;;;;;;;3.35;1.67;;;22.40;44.30;;;;;;5049793;28;20059;-12
2022/09/21 11:41:05;;;;;;;2.90;1.92;;;22.40;44.40;;;;;;5049836;28;20048;-11
2022/09/21 11:43:56;;;;;;;2.30;1.75;;;22.40;44.30;;;;;;5049757;28;20529;-11
2022/09/21 11:46:33;;;;;;;2.30;1.90;;;22.40;44.30;;;;;;5049632;28;20053;-12
2022/09/21 11:49:09;;;;;;;2.05;1.60;;;22.40;44.30;;;;;;5049698;28;20045;-11
2022/09/21 11:51:43;;;;;;;4.75;2.10;;;22.40;44.20;;;;;;5049886;28;20053;-11
2022/09/21 11:54:22;;;;;;;1.95;1.50;;;22.40;44.20;;;;;;5050009;28;20081;-11
2022/09/21 11:57:00;;;;;;;2.90;1.88;;;22.30;44.20;;;;;;5049924;28;20426;-11
2022/09/21 11:59:38;;;;;;;2.08;1.63;;;22.40;44.30;;;;;;5049593;28;20082;-12
2022/09/21 12:02:35;;;;;;;3.10;2.13;;;22.30;44.20;;;;;;5050120;28;20424;-11
2022/09/21 12:05:28;;;;;;;2.95;1.80;;;22.30;44.50;;;;;;5049341;28;20057;-12
2022/09/21 12:08:18;;;;;;;2.30;1.80;;;22.30;44.50;;;;;;5049258;28;20068;-11
2022/09/21 12:11:21;;;;;;;2.65;1.90;;;22.30;44.50;;;;;;5110984;28;20057;-11
2022/09/21 12:14:23;;;;;;;4.78;1.98;;;22.40;44.50;;;;;;5049533;28;20470;-11
2022/09/21 12:16:55;;;;;;;2.83;2.03;;;22.40;44.40;;;;;;5049046;28;20057;-12
2022/09/21 12:19:43;;;;;;;4.55;2.08;;;22.40;44.40;;;;;;5049731;28;20071;-12
2022/09/21 12:22:16;;;;;;;2.35;1.73;;;22.40;44.40;;;;;;5049082;28;20060;-10
2022/09/21 12:24:51;;;;;;;3.60;1.70;;;22.30;44.30;;;;;;5048450;28;20060;-10
2022/09/21 12:27:28;;;;;;;2.80;1.80;;;22.40;44.40;;;;;;5048627;28;20073;-10
2022/09/21 12:30:12;;;;;;;3.75;2.00;;;22.40;44.30;;;;;;5049120;28;20151;-10
2022/09/21 12:32:52;;;;;;;3.33;1.88;;;22.40;44.40;;;;;;5049313;28;20079;-11
2022/09/21 12:35:46;;;;;;;3.95;2.15;;;22.40;44.30;;;;;;5048596;28;20098;-10
2022/09/21 12:38:28;;;;;;;2.25;2.05;;;22.40;44.30;;;;;;5048426;28;20479;-10
2022/09/21 12:41:15;;;;;;;2.03;1.83;;;22.40;44.30;;;;;;5048484;28;20053;-11
2022/09/21 12:43:56;;;;;;;4.90;2.10;;;22.40;44.30;;;;;;5048603;28;20137;-10
2022/09/21 12:46:35;;;;;;;3.75;2.10;;;22.40;44.20;;;;;;5048397;28;20045;-10
2022/09/21 12:49:09;;;;;;;3.22;1.70;;;22.40;44.20;;;;;;5049081;28;20053;-10
2022/09/21 12:51:41;;;;;;;2.58;2.15;;;22.40;44.30;;;;;;5048977;28;20060;-10
2022/09/21 12:54:39;;;;;;;2.50;2.03;;;22.40;44.20;;;;;;5048657;28;20569;-10
2022/09/21 12:57:21;;;;;;;3.50;2.17;;;22.40;44.30;;;;;;5048460;28;20071;-10
2022/09/21 13:00:03;;;;;;;3.13;1.92;;;22.50;44.20;;;;;;5049042;28;20139;-10
2022/09/21 13:02:43;;;;;;;3.20;2.28;;;22.40;44.10;;;;;;5048604;28;20088;-10
2022/09/21 13:05:26;;;;;;;4.90;2.50;;;22.40;44.20;;;;;;5048460;28;20059;-10
2022/09/21 13:08:14;;;;;;;3.83;1.83;;;22.40;44.10;;;;;;5048209;28;20056;-10
2022/09/21 13:11:00;;;;;;;4.47;1.80;;;22.50;44.20;;;;;;5048246;28;20417;-10
2022/09/21 13:13:33;;;;;;;3.80;2.22;;;22.50;44.10;;;;;;5048395;28;20128;-10
2022/09/21 13:16:00;;;;;;;3.03;2.22;;;22.50;44.10;;;;;;5048419;28;20389;-10
2022/09/21 13:18:38;;;;;;;2.83;1.58;;;22.50;44.10;;;;;;5048262;28;20045;-10
2022/09/21 13:21:20;;;;;;;4.63;2.25;;;22.50;44.10;;;;;;5047945;28;20444;-10
2022/09/21 13:24:16;;;;;;;3.22;2.08;;;22.40;44.20;;;;;;5048705;28;20045;-10